This is the latest recevied weather packets stored in our database for station/object KQ7A. If no packets are shown the sender has not sent any weather packets the latest 10 day(s).
| Time | Temp. | Humidity | Pressure | Rain* | Wind** | Luminosity | Snow |
|---|---|---|---|---|---|---|---|
| 1788057456 | 19.44° C | 35% | 1018.2 hPa | 0 mm | - | 1 W/m² | - |
| 1788057155 | 18.89° C | 32% | 1018.2 hPa | 0 mm | - | 3 W/m² | - |
| 1788056855 | 20.56° C | 31% | 1018.4 hPa | 0 mm | - | 5 W/m² | - |
| 1788056550 | 18.89° C | 36% | 1018.4 hPa | 0 mm | - | 6 W/m² | - |
| 1788056245 | 18.89° C | 35% | 1018.3 hPa | 0 mm | - | 9 W/m² | - |
| 1788055941 | 18.89° C | 35% | 1018.3 hPa | 0 mm | - | 12 W/m² | - |
| 1788055640 | 20° C | 35% | 1018.3 hPa | 0 mm | - | 14 W/m² | - |
| 1788055335 | 20.56° C | 31% | 1018.4 hPa | 0 mm | - | 16 W/m² | - |
| 1788055034 | 21.67° C | 27% | 1018.1 hPa | 0 mm | - | 18 W/m² | - |
| 1788054730 | 21.67° C | 28% | 1018.3 hPa | 0 mm | - | 20 W/m² | - |
| 1788054425 | 21.67° C | 28% | 1018.2 hPa | 0 mm | - | 20 W/m² | - |
| 1788054121 | 22.22° C | 26% | 1018.3 hPa | 0 mm | - | 23 W/m² | - |
| 1788053816 | 22.78° C | 26% | 1018.2 hPa | 0 mm | - | 25 W/m² | - |
| 1788053512 | 21.67° C | 30% | 1018.3 hPa | 0 mm | - | 26 W/m² | - |
| 1788053211 | 22.22° C | 29% | 1017.9 hPa | 0 mm | - | 26 W/m² | - |
| 1788052908 | 22.78° C | 26% | 1018.2 hPa | 0 mm | - | 28 W/m² | - |
| 1788052608 | 23.33° C | 23% | 1018.1 hPa | 0 mm | - | 29 W/m² | - |
| 1788052298 | 21.11° C | 30% | 1017.8 hPa | 0 mm | - | 30 W/m² | - |
| 1788051993 | 22.22° C | 32% | 1017.8 hPa | 0 mm | - | 31 W/m² | - |
| 1788051688 | 23.33° C | 28% | 1018.1 hPa | 0 mm | - | 32 W/m² | - |
| 1788051386 | 24.44° C | 23% | 1017.8 hPa | 0 mm | - | 33 W/m² | - |
| 1788051085 | 25° C | 21% | 1018.2 hPa | 0 mm | - | 146 W/m² | - |
| 1788050780 | 25° C | 25% | 1017.7 hPa | 0 mm | - | 204 W/m² | - |
| 1788050474 | 25.56° C | 23% | 1017.9 hPa | 0 mm | - | 37 W/m² | - |
| 1788050170 | 26.11° C | 25% | 1017.6 hPa | 0 mm | - | 44 W/m² | - |
* Rain latest hour (hover to see other rain measurements)
** Current wind speed in m/s (hover to see current wind gust speed)